createdAt,value
2019-04-30T00:00:47.200Z,101784.83
2019-04-30T00:03:29.537Z,101789.34
2019-04-30T00:06:12.569Z,101793.13
2019-04-30T00:08:45.140Z,101785.33
2019-04-30T00:11:19.499Z,101788.27
2019-04-30T00:13:55.407Z,101784.12
2019-04-30T00:16:25.292Z,101772.98
2019-04-30T00:19:00.463Z,101778.95
2019-04-30T00:21:31.276Z,101774.42
2019-04-30T00:24:06.244Z,101776.98
2019-04-30T00:26:39.816Z,101780.84
2019-04-30T00:29:09.780Z,101778.46
2019-04-30T00:31:41.616Z,101771.64
2019-04-30T00:34:21.853Z,101780.30
2019-04-30T00:36:53.234Z,101778.01
2019-04-30T00:39:27.363Z,101783.63
2019-04-30T00:42:00.876Z,101774.34
2019-04-30T00:44:35.658Z,101776.66
2019-04-30T00:47:08.443Z,101764.17
2019-04-30T00:49:40.824Z,101770.16
2019-04-30T00:52:11.331Z,101768.11
2019-04-30T00:54:42.461Z,101764.90
2019-04-30T00:57:15.284Z,101762.83
2019-04-30T00:59:48.052Z,101773.56
2019-04-30T01:02:31.675Z,101769.66
2019-04-30T01:05:05.455Z,101766.84
2019-04-30T01:07:33.052Z,101770.43
2019-04-30T01:10:06.911Z,101768.13
2019-04-30T01:12:46.520Z,101765.42
2019-04-30T01:15:15.740Z,101769.88
2019-04-30T01:17:51.094Z,101763.75
2019-04-30T01:20:24.191Z,101772.34
2019-04-30T01:22:58.571Z,101764.95
2019-04-30T01:25:30.262Z,101764.81
2019-04-30T01:28:01.778Z,101752.17
2019-04-30T01:30:32.282Z,101756.69
2019-04-30T01:33:03.914Z,101754.43
2019-04-30T01:35:35.293Z,101752.36
2019-04-30T01:38:11.178Z,101749.36
2019-04-30T01:40:42.852Z,101747.88
2019-04-30T01:43:23.530Z,101748.73
2019-04-30T01:45:53.072Z,101742.00
2019-04-30T01:48:26.801Z,101739.09
2019-04-30T01:51:01.159Z,101739.02
2019-04-30T01:53:30.895Z,101738.91
2019-04-30T01:56:24.575Z,101738.87
2019-04-30T01:58:59.544Z,101743.88
2019-04-30T02:01:31.532Z,101750.09
2019-04-30T02:04:03.347Z,101748.02
2019-04-30T02:06:34.385Z,101743.39
2019-04-30T02:09:06.441Z,101744.75
2019-04-30T02:11:38.821Z,101748.66
2019-04-30T02:14:11.887Z,101745.64
2019-04-30T02:16:43.319Z,101752.66
2019-04-30T02:19:14.277Z,101759.63
2019-04-30T02:21:48.235Z,101753.86
2019-04-30T02:24:21.008Z,101753.72
2019-04-30T02:26:53.917Z,101750.45
2019-04-30T02:29:26.197Z,101748.59
2019-04-30T02:32:00.994Z,101760.22
2019-04-30T02:34:42.205Z,101752.39
2019-04-30T02:37:25.661Z,101754.28
2019-04-30T02:40:00.931Z,101758.54
2019-04-30T02:42:39.705Z,101763.31
2019-04-30T02:45:13.412Z,101757.94
2019-04-30T02:47:49.896Z,101757.88
2019-04-30T02:50:22.520Z,101751.44
2019-04-30T02:52:55.533Z,101756.46
2019-04-30T02:55:45.603Z,101751.30
2019-04-30T02:58:21.022Z,101752.21
2019-04-30T03:00:53.593Z,101750.17
2019-04-30T03:03:29.954Z,101751.05
2019-04-30T03:06:03.454Z,101752.98
2019-04-30T03:08:34.997Z,101756.39
2019-04-30T03:11:06.504Z,101748.37
2019-04-30T03:13:42.879Z,101749.53
2019-04-30T03:16:15.852Z,101748.37
2019-04-30T03:19:21.532Z,101744.51
2019-04-30T03:22:00.194Z,101742.72
2019-04-30T03:24:31.675Z,101744.58
2019-04-30T03:27:05.003Z,101743.72
2019-04-30T03:29:40.167Z,101739.26
2019-04-30T03:32:13.738Z,101744.04
2019-04-30T03:34:45.997Z,101740.91
2019-04-30T03:37:19.889Z,101741.47
2019-04-30T03:39:52.138Z,101734.67
2019-04-30T03:42:24.512Z,101738.87
2019-04-30T03:44:56.345Z,101742.53
2019-04-30T03:47:29.939Z,101739.61
2019-04-30T03:50:00.434Z,101732.30
2019-04-30T03:52:31.503Z,101737.28
2019-04-30T03:55:03.396Z,101732.23
2019-04-30T03:57:34.634Z,101729.02
2019-04-30T04:00:09.318Z,101729.52
2019-04-30T04:02:46.896Z,101729.37
2019-04-30T04:05:36.764Z,101724.74
2019-04-30T04:08:23.246Z,101732.13
2019-04-30T04:11:00.539Z,101732.94
2019-04-30T04:13:33.156Z,101732.70
2019-04-30T04:16:05.872Z,101729.17
2019-04-30T04:18:36.916Z,101732.45
2019-04-30T04:21:16.299Z,101734.08
2019-04-30T04:23:43.303Z,101720.75
2019-04-30T04:26:20.074Z,101728.13
2019-04-30T04:28:52.647Z,101727.00
2019-04-30T04:31:24.736Z,101726.69
2019-04-30T04:34:03.066Z,101733.68
2019-04-30T04:36:39.957Z,101738.22
2019-04-30T04:39:23.815Z,101734.28
2019-04-30T04:41:59.927Z,101735.71
2019-04-30T04:44:34.832Z,101731.08
2019-04-30T04:47:06.534Z,101736.17
2019-04-30T04:49:39.770Z,101728.06
2019-04-30T04:52:14.912Z,101736.32
2019-04-30T04:54:46.251Z,101732.88
2019-04-30T04:57:19.319Z,101735.83
2019-04-30T04:59:53.842Z,101732.59
2019-04-30T05:02:32.870Z,101723.60
2019-04-30T05:05:04.819Z,101725.22
2019-04-30T05:07:39.653Z,101724.41
2019-04-30T05:10:14.148Z,101721.45
2019-04-30T05:12:45.632Z,101721.17
2019-04-30T05:15:17.163Z,101731.26
2019-04-30T05:17:49.748Z,101733.30
2019-04-30T05:20:21.174Z,101733.62
2019-04-30T05:22:53.436Z,101734.42
2019-04-30T05:25:24.898Z,101735.16
2019-04-30T05:28:01.712Z,101731.95
2019-04-30T05:30:33.099Z,101733.55
2019-04-30T05:33:06.632Z,101731.58
2019-04-30T05:35:56.078Z,101739.09
2019-04-30T05:38:32.437Z,101738.67
2019-04-30T05:41:06.587Z,101741.30
2019-04-30T05:43:42.282Z,101741.51
2019-04-30T05:46:29.980Z,101742.23
2019-04-30T05:49:14.455Z,101738.41
2019-04-30T05:51:53.587Z,101740.72
2019-04-30T05:54:21.872Z,101741.95
2019-04-30T05:56:57.056Z,101744.12
2019-04-30T05:59:29.473Z,101741.38
2019-04-30T06:02:02.390Z,101741.56
2019-04-30T06:07:12.232Z,101746.30
2019-04-30T06:09:52.927Z,101752.27
2019-04-30T06:13:03.117Z,101752.50
2019-04-30T06:15:49.110Z,101761.12
2019-04-30T06:18:22.254Z,101756.05
2019-04-30T06:20:55.131Z,101758.99
2019-04-30T06:23:26.771Z,101767.28
2019-04-30T06:26:06.827Z,101770.78
2019-04-30T06:28:32.654Z,101760.79
2019-04-30T06:31:04.666Z,101767.94
2019-04-30T06:33:38.859Z,101767.39
2019-04-30T06:36:11.701Z,101771.18
2019-04-30T06:38:42.760Z,101769.50
2019-04-30T06:41:13.392Z,101769.15
2019-04-30T06:43:48.797Z,101774.88
2019-04-30T06:46:20.549Z,101774.27
2019-04-30T06:48:51.690Z,101780.59
2019-04-30T06:51:23.441Z,101769.65
2019-04-30T06:53:56.410Z,101772.09
2019-04-30T06:56:28.929Z,101777.17
2019-04-30T06:59:02.191Z,101777.84
2019-04-30T07:01:33.732Z,101773.99
2019-04-30T07:04:06.604Z,101771.83
2019-04-30T07:06:45.096Z,101771.29
2019-04-30T07:09:58.060Z,101772.48
2019-04-30T07:12:31.480Z,101770.57
2019-04-30T07:15:04.107Z,101775.56
2019-04-30T07:17:59.115Z,101776.20
2019-04-30T07:20:34.013Z,101778.05
2019-04-30T07:23:05.971Z,101779.89
2019-04-30T07:25:51.724Z,101779.31
2019-04-30T07:28:42.720Z,101781.03
2019-04-30T07:31:13.336Z,101788.33
2019-04-30T07:33:39.672Z,101785.39
2019-04-30T07:36:11.326Z,101789.27
2019-04-30T07:38:54.194Z,101784.80
2019-04-30T07:41:23.371Z,101789.09
2019-04-30T07:43:55.027Z,101786.75
2019-04-30T07:46:35.098Z,101798.34
2019-04-30T07:49:04.892Z,101796.72
2019-04-30T07:51:41.369Z,101803.53
2019-04-30T07:54:12.326Z,101806.06
2019-04-30T07:56:50.662Z,101806.36
2019-04-30T07:59:22.674Z,101805.42
2019-04-30T08:02:06.308Z,101805.28
2019-04-30T08:04:51.434Z,101803.84
2019-04-30T08:07:21.812Z,101800.70
2019-04-30T08:09:55.811Z,101812.68
2019-04-30T08:12:31.827Z,101809.20
2019-04-30T08:14:59.648Z,101805.70
2019-04-30T08:17:35.979Z,101811.33
2019-04-30T08:20:12.562Z,101801.77
2019-04-30T08:22:50.381Z,101809.37
2019-04-30T08:25:25.771Z,101807.07
2019-04-30T08:28:03.003Z,101807.89
2019-04-30T08:30:39.146Z,101801.33
2019-04-30T08:33:19.224Z,101809.01
2019-04-30T08:35:53.371Z,101798.56
2019-04-30T08:38:30.359Z,101806.20
2019-04-30T08:41:06.434Z,101807.83
2019-04-30T08:43:45.749Z,101802.63
2019-04-30T08:46:20.289Z,101809.56
2019-04-30T08:48:54.497Z,101810.12
2019-04-30T08:51:30.345Z,101798.74
2019-04-30T08:54:01.569Z,101799.85
2019-04-30T08:56:34.400Z,101804.70
2019-04-30T08:59:08.729Z,101795.31
2019-04-30T09:01:55.788Z,101795.79
2019-04-30T09:04:30.204Z,101798.52
2019-04-30T09:07:01.922Z,101796.69
2019-04-30T09:09:35.297Z,101792.41
2019-04-30T09:12:11.346Z,101789.53
2019-04-30T09:14:49.408Z,101783.89
2019-04-30T09:17:25.081Z,101783.89
2019-04-30T09:20:15.086Z,101781.22
2019-04-30T09:22:47.304Z,101789.16
2019-04-30T09:25:19.487Z,101791.95
2019-04-30T09:28:01.155Z,101784.99
2019-04-30T09:30:34.347Z,101789.79
2019-04-30T09:33:07.098Z,101784.67
2019-04-30T09:35:46.492Z,101787.22
2019-04-30T09:38:19.508Z,101789.66
2019-04-30T09:40:54.922Z,101789.66
2019-04-30T09:43:29.188Z,101788.36
2019-04-30T09:46:15.238Z,101789.56
2019-04-30T09:48:41.179Z,101784.41
2019-04-30T09:51:12.817Z,101788.06
2019-04-30T09:53:59.202Z,101786.05
2019-04-30T09:56:29.453Z,101784.83
2019-04-30T09:59:02.473Z,101783.98
2019-04-30T10:01:35.455Z,101775.25
2019-04-30T10:04:10.205Z,101776.86
2019-04-30T10:06:46.083Z,101772.56
2019-04-30T10:09:20.429Z,101772.50
2019-04-30T10:12:14.119Z,101773.78
2019-04-30T10:14:51.128Z,101770.56
2019-04-30T10:17:30.971Z,101767.92
2019-04-30T10:20:04.762Z,101761.16
2019-04-30T10:22:39.936Z,101761.77
2019-04-30T10:25:10.409Z,101765.95
2019-04-30T10:27:42.345Z,101755.31
2019-04-30T10:30:16.927Z,101758.54
2019-04-30T10:32:50.080Z,101756.36
2019-04-30T10:35:23.048Z,101750.57
2019-04-30T10:37:55.021Z,101758.27
2019-04-30T10:40:28.721Z,101755.16
2019-04-30T10:43:03.563Z,101750.59
2019-04-30T10:45:38.658Z,101743.94
2019-04-30T10:48:09.678Z,101738.30
2019-04-30T10:50:43.937Z,101733.45
2019-04-30T10:53:14.887Z,101726.59
2019-04-30T10:55:50.267Z,101728.25
2019-04-30T10:58:23.372Z,101723.66
2019-04-30T11:01:01.934Z,101716.56
2019-04-30T11:03:33.608Z,101721.52
2019-04-30T11:06:08.679Z,101715.83
2019-04-30T11:08:39.485Z,101714.25
2019-04-30T11:11:11.711Z,101715.06
2019-04-30T11:13:44.597Z,101707.21
2019-04-30T11:16:18.764Z,101709.64
2019-04-30T11:18:49.563Z,101705.30
2019-04-30T11:21:20.565Z,101704.70
2019-04-30T11:23:52.390Z,101703.06
2019-04-30T11:26:25.583Z,101702.59
2019-04-30T11:29:02.227Z,101692.64
2019-04-30T11:31:46.294Z,101688.91
2019-04-30T11:34:19.364Z,101690.60
2019-04-30T11:36:50.565Z,101687.98
2019-04-30T11:39:32.061Z,101676.78
2019-04-30T11:42:17.613Z,101677.70
2019-04-30T11:44:50.140Z,101675.69
2019-04-30T11:47:34.685Z,101679.10
2019-04-30T11:50:19.170Z,101673.47
2019-04-30T11:53:07.043Z,101652.94
2019-04-30T11:55:32.400Z,101658.06
2019-04-30T11:58:07.145Z,101658.38
2019-04-30T12:00:51.648Z,101649.17
2019-04-30T12:03:32.013Z,101647.48
2019-04-30T12:06:28.544Z,101635.01
2019-04-30T12:09:22.113Z,101632.55
2019-04-30T12:11:53.031Z,101635.44
2019-04-30T12:14:29.793Z,101630.66
2019-04-30T12:17:08.873Z,101629.34
2019-04-30T12:19:42.115Z,101626.84
2019-04-30T12:22:13.579Z,101624.38
2019-04-30T12:24:46.392Z,101628.28
2019-04-30T12:27:18.709Z,101622.61
2019-04-30T12:29:49.553Z,101626.63
2019-04-30T12:32:21.493Z,101624.80
2019-04-30T12:34:53.149Z,101622.48
2019-04-30T12:37:23.321Z,101618.48
2019-04-30T12:39:56.017Z,101619.12
2019-04-30T12:42:28.716Z,101615.06
2019-04-30T12:45:00.111Z,101612.06
2019-04-30T12:47:34.429Z,101606.19
2019-04-30T12:50:21.466Z,101611.77
2019-04-30T12:53:10.282Z,101609.36
2019-04-30T12:55:51.677Z,101612.70
2019-04-30T12:58:25.459Z,101601.20
2019-04-30T13:00:59.143Z,101600.45
2019-04-30T13:03:31.493Z,101598.81
2019-04-30T13:06:03.708Z,101588.95
2019-04-30T13:08:37.920Z,101595.25
2019-04-30T13:11:12.770Z,101587.19
2019-04-30T13:13:44.352Z,101582.50
2019-04-30T13:16:19.298Z,101583.84
2019-04-30T13:18:51.904Z,101587.23
2019-04-30T13:21:23.643Z,101582.23
2019-04-30T13:23:57.868Z,101581.04
2019-04-30T13:26:30.132Z,101583.48
2019-04-30T13:29:05.961Z,101569.31
2019-04-30T13:31:37.859Z,101572.67
2019-04-30T13:34:29.915Z,101563.27
2019-04-30T13:37:01.837Z,101562.59
2019-04-30T13:39:49.495Z,101560.21
2019-04-30T13:42:21.023Z,101564.07
2019-04-30T13:44:51.694Z,101548.75
2019-04-30T13:47:24.793Z,101556.06
2019-04-30T13:49:56.197Z,101554.80
2019-04-30T13:52:28.854Z,101551.41
2019-04-30T13:55:10.975Z,101547.62
2019-04-30T13:57:41.614Z,101544.56
2019-04-30T14:00:20.905Z,101555.00
2019-04-30T14:03:00.865Z,101551.76
2019-04-30T14:10:44.615Z,101546.58
2019-04-30T14:13:21.719Z,101539.84
2019-04-30T14:16:38.471Z,101541.81
2019-04-30T14:20:42.527Z,101537.17
2019-04-30T14:32:33.667Z,101527.72
2019-04-30T14:56:46.975Z,101518.11
2019-04-30T14:59:42.631Z,101509.20
2019-04-30T15:02:37.389Z,101501.92
2019-04-30T15:05:14.326Z,101503.64
2019-04-30T15:08:22.267Z,101498.19
2019-04-30T15:15:45.799Z,101486.88
2019-04-30T15:19:32.726Z,101490.87
2019-04-30T15:30:04.624Z,101487.89
2019-04-30T15:33:31.182Z,101473.03
2019-04-30T17:15:41.988Z,101429.97
2019-04-30T17:47:46.734Z,101437.17
2019-04-30T17:51:05.644Z,101430.75
2019-04-30T17:54:02.759Z,101436.48
2019-04-30T17:56:33.769Z,101438.01
2019-04-30T17:59:06.319Z,101439.53
2019-04-30T18:01:40.129Z,101440.09
2019-04-30T18:04:13.077Z,101448.65
2019-04-30T18:06:46.043Z,101449.34
2019-04-30T18:09:22.696Z,101449.27
2019-04-30T18:12:02.544Z,101447.28
2019-04-30T18:14:39.586Z,101446.34
2019-04-30T18:17:15.406Z,101452.51
2019-04-30T18:20:19.277Z,101462.63
2019-04-30T18:23:26.488Z,101461.23
2019-04-30T18:26:01.429Z,101462.65
2019-04-30T18:28:32.007Z,101465.28
2019-04-30T18:31:03.887Z,101466.44
2019-04-30T18:33:34.352Z,101466.20
2019-04-30T18:36:06.385Z,101466.20
2019-04-30T18:38:39.117Z,101471.03
2019-04-30T18:41:11.053Z,101467.30
2019-04-30T18:43:41.233Z,101464.83
2019-04-30T18:46:11.508Z,101466.26
2019-04-30T18:48:42.243Z,101472.55
2019-04-30T18:51:30.312Z,101476.83
2019-04-30T18:53:50.881Z,101479.64
2019-04-30T18:56:22.168Z,101478.28
2019-04-30T18:58:52.961Z,101481.84
2019-04-30T19:01:26.115Z,101487.86
2019-04-30T19:04:01.193Z,101484.27
2019-04-30T19:06:32.898Z,101482.43
2019-04-30T19:09:29.787Z,101491.36
2019-04-30T19:12:29.180Z,101489.58
2019-04-30T19:15:19.597Z,101495.77
2019-04-30T19:18:09.333Z,101498.88
2019-04-30T19:20:46.306Z,101501.08
2019-04-30T19:23:19.063Z,101505.90
2019-04-30T19:25:50.627Z,101508.00
2019-04-30T19:28:24.453Z,101504.30
2019-04-30T19:30:58.904Z,101508.58
2019-04-30T19:33:31.191Z,101514.83
2019-04-30T19:36:03.745Z,101510.95
2019-04-30T19:38:36.676Z,101514.72
2019-04-30T19:41:11.327Z,101516.64
2019-04-30T19:43:43.566Z,101516.94
2019-04-30T19:46:14.175Z,101519.41
2019-04-30T19:48:44.639Z,101516.13
2019-04-30T19:51:16.186Z,101529.13
2019-04-30T19:53:48.966Z,101526.64
2019-04-30T19:56:21.059Z,101527.66
2019-04-30T19:59:01.966Z,101521.28
2019-04-30T20:01:25.992Z,101527.92
2019-04-30T20:04:04.726Z,101520.29
2019-04-30T20:06:38.681Z,101522.70
2019-04-30T20:09:09.690Z,101519.20
2019-04-30T20:11:42.773Z,101518.27
2019-04-30T20:14:15.127Z,101518.19
2019-04-30T20:16:49.040Z,101516.70
2019-04-30T20:19:21.600Z,101516.33
2019-04-30T20:21:54.192Z,101519.12
2019-04-30T20:24:26.842Z,101511.44
2019-04-30T20:27:07.173Z,101516.91
2019-04-30T20:29:32.457Z,101515.77
2019-04-30T20:32:05.576Z,101516.11
2019-04-30T20:34:39.280Z,101513.66
2019-04-30T20:37:12.457Z,101518.17
2019-04-30T20:39:53.207Z,101501.90
2019-04-30T20:42:23.909Z,101512.92
2019-04-30T20:44:55.812Z,101515.68
2019-04-30T20:47:30.008Z,101512.17
2019-04-30T20:50:03.463Z,101517.04
2019-04-30T20:52:39.404Z,101513.80
2019-04-30T20:55:17.025Z,101510.48
2019-04-30T20:57:50.600Z,101512.02
2019-04-30T21:00:22.855Z,101502.91
2019-04-30T21:02:59.743Z,101499.59
2019-04-30T21:05:30.734Z,101497.83
2019-04-30T21:08:01.892Z,101502.64
2019-04-30T21:10:35.185Z,101501.48
2019-04-30T21:13:10.996Z,101501.73
2019-04-30T21:15:54.840Z,101498.41
2019-04-30T21:18:25.784Z,101497.44
2019-04-30T21:20:59.571Z,101499.02
2019-04-30T21:23:33.240Z,101496.80
2019-04-30T21:26:06.192Z,101495.59
2019-04-30T21:28:39.338Z,101501.36
2019-04-30T21:31:37.834Z,101497.16
2019-04-30T21:34:19.588Z,101501.00
2019-04-30T21:36:51.123Z,101492.51
2019-04-30T21:39:24.701Z,101490.09
2019-04-30T21:41:59.445Z,101488.91
2019-04-30T21:44:30.120Z,101487.38
2019-04-30T21:47:01.162Z,101481.84
2019-04-30T21:49:33.649Z,101485.81
2019-04-30T21:52:06.180Z,101496.28
2019-04-30T21:54:38.825Z,101489.88
2019-04-30T21:57:09.837Z,101492.11
2019-04-30T21:59:41.356Z,101492.80
2019-04-30T22:02:12.669Z,101489.48
2019-04-30T22:04:47.396Z,101488.89
2019-04-30T22:07:21.062Z,101489.17
2019-04-30T22:09:54.417Z,101484.87
2019-04-30T22:12:28.441Z,101487.59
2019-04-30T22:15:01.274Z,101485.22
2019-04-30T22:17:34.919Z,101489.10
2019-04-30T22:20:09.603Z,101493.11
2019-04-30T22:22:43.225Z,101490.10
2019-04-30T22:25:14.803Z,101490.91
2019-04-30T22:27:45.410Z,101493.16
2019-04-30T22:30:17.141Z,101490.41
2019-04-30T22:32:48.362Z,101491.20
2019-04-30T22:35:50.362Z,101490.98
2019-04-30T22:38:25.814Z,101485.55
2019-04-30T22:40:58.872Z,101486.35
2019-04-30T22:43:31.035Z,101484.81
2019-04-30T22:46:09.774Z,101485.02
2019-04-30T22:48:42.484Z,101483.72
2019-04-30T22:51:15.798Z,101484.38
2019-04-30T22:53:50.493Z,101485.08
2019-04-30T22:56:23.949Z,101477.83
2019-04-30T22:58:55.826Z,101479.94
2019-04-30T23:01:52.060Z,101480.52
2019-04-30T23:04:36.789Z,101478.48
2019-04-30T23:07:09.384Z,101470.55
2019-04-30T23:09:41.796Z,101476.36
2019-04-30T23:12:17.464Z,101474.80
2019-04-30T23:14:49.278Z,101474.49
2019-04-30T23:17:21.144Z,101472.02
2019-04-30T23:19:51.392Z,101472.24
2019-04-30T23:22:23.195Z,101477.28
2019-04-30T23:24:56.555Z,101472.89
2019-04-30T23:27:30.601Z,101467.83
2019-04-30T23:30:03.375Z,101463.09
2019-04-30T23:32:34.541Z,101462.53
2019-04-30T23:35:09.103Z,101467.30
2019-04-30T23:37:42.407Z,101463.09
2019-04-30T23:40:31.870Z,101453.84
2019-04-30T23:43:03.818Z,101456.19
2019-04-30T23:45:38.468Z,101454.22
2019-04-30T23:48:09.183Z,101454.55
2019-04-30T23:50:39.850Z,101450.89
2019-04-30T23:53:14.074Z,101454.55
2019-04-30T23:55:45.359Z,101448.64
2019-04-30T23:58:17.607Z,101440.68
